Tunnel City, WI (54662)

3:30 PM CDT on August 30, 2015 (GMT -0500)
Water Mill | | Change Station
CLOSE
Current Station
Personal Weather Station
Location: Tomah, WI
Elevation: 950 ft
Nearby Weather Stations

Elev 950 ft 44.05 °N, 90.46 °W | Updated 5 seconds ago

Partly Cloudy
Partly Cloudy
76.8 °F
Feels Like 79 °F
N
2.0
Wind Variable Wind from WSW
Gusts 0.0 mph

Today
High -- | Low -- °F
--% Chance of Precip.
Yesterday
High -- | Low -- °F
Precip. -- in
6:22 AM 7:42 PM
Full, 98% visible
Pressure 30.04 in
Visibility 10.0 miles
Clouds Mostly Cloudy 2300 ft
Heat Index 79 °F
Dew Point 65 °F
Humidity 68%
Rainfall 0.01 in
Snow Depth Not available.
UV 0.0 out of 12
Pollen 10.00 out of 12
Air Quality Not available.
Flu Activity Not available.
METAR KCMY 302010Z AUTO 20006KT 10SM BKN023 24/16 A3004 RMK AO2 T02380161
Pressure 30.04 in
Visibility 10.0 miles
Clouds Mostly Cloudy 2300 ft
Heat Index 79 °F
Dew Point 65 °F
Humidity 68%
Rainfall 0.01 in
Snow Depth Not available.
UV 0.0 out of 12
Pollen 10.00 out of 12
Air Quality Not available.
Flu Activity Not available.
METAR KCMY 302010Z AUTO 20006KT 10SM BKN023 24/16 A3004 RMK AO2 T02380161

10-Day Weather Forecast

×

Almanac

Astronomy

Aug. 30, 2015 Rise Set
Actual Time
Civil Twilight
Nautical Twilight
Astronomical Twilight
Moon
Length of Visible Light
Length of Day
Tomorrow will be .
, % of the Moon is Illuminated

Today's Extremes

State Highs State Lows

Community

WunderPhotos

Upload Photos

1,851,056 photos uploaded!

WunderBlogs® & News

Nearby

Air Quality

  Air Quality AQ Index Pollutant
Not available.

Snow Depth

Station Depth Elevation

Earthquake Activity

City Distance Mag. Time & Date
Minimum magnitude displayed is 2.5.

Coastal Water Temperatures

Place Temperature

Stations

Nearby Weather Stations

Station Location Temp. Windchill Dew Point Humidity Wind Precip. Elev Updated Type